TAF KBLV 050800Z 0508/0614 01009KT 9999 SCT250 QNH2995INS TX12/0521Z TNM01/0512Z
From batch tds/tafs/production/2024/2/5/h08_m00_tafs.cache.xml.gz
Issued (18 days ago)
Forecasts

---
- altim_in_hg
- '29.94'

---
- temperature
- - valid_time: '2024-02-05T08:00:02Z'
  - valid_time: '2024-02-05T08:00:02Z'

---
- fcst_time_to
- '2024-02-06T14:00:00Z'

---
- sky_condition
- - sky_cover: SCT
    cloud_base_ft_agl: '25000'

---
- wind_speed_kt
- '9'

---
- fcst_time_from
- '2024-02-05T08:00:00Z'

---
- wind_dir_degrees
- '10'

---
- visibility_statute_mi
- 6+

talk